Time;durP1;ratioP1;P1;durP2;ratioP2;P2;SDS_P1;SDS_P2;PMS_P1;PMS_P2;Temp;Humidity;BMP_temperature;BMP_pressure;BME280_temperature;BME280_humidity;BME280_pressure;Samples;Min_cycle;Max_cycle;Signal;HPM_P1;HPM_P2
2024/04/08 00:00:51;;;;;;;0.20;0.20;;;;;;;14.65;100.00;75399.34;5092293;28;20024;-92
2024/04/08 00:03:17;;;;;;;0.20;0.20;;;;;;;14.57;100.00;75392.53;5076299;28;20016;-91
2024/04/08 00:05:43;;;;;;;0.20;0.20;;;;;;;14.53;100.00;75384.38;5076539;28;20053;-91
2024/04/08 00:08:08;;;;;;;0.20;0.20;;;;;;;14.40;100.00;75369.38;5076707;28;20656;-91
2024/04/08 00:10:37;;;;;;;0.20;0.20;;;;;;;14.36;100.00;75365.19;5076903;28;20016;-92
2024/04/08 00:13:02;;;;;;;0.20;0.20;;;;;;;14.51;100.00;75388.13;5076504;28;20031;-92
2024/04/08 00:15:28;;;;;;;0.20;0.20;;;;;;;14.45;100.00;75372.00;5076499;28;20038;-91
2024/04/08 00:17:53;;;;;;;0.20;0.20;;;;;;;14.58;100.00;75387.56;5086525;28;20040;-92
2024/04/08 00:20:19;;;;;;;0.20;0.20;;;;;;;14.53;100.00;75387.16;5104232;28;20165;-92
2024/04/08 00:22:46;;;;;;;0.20;0.20;;;;;;;14.50;100.00;75381.38;5076644;28;20055;-92
2024/04/08 00:25:12;;;;;;;0.20;0.20;;;;;;;14.77;100.00;75409.75;5075445;28;20040;-92
2024/04/08 00:27:38;;;;;;;0.20;0.20;;;;;;;14.68;100.00;75402.94;5075836;28;20093;-92
2024/04/08 00:30:04;;;;;;;0.20;0.20;;;;;;;14.62;100.00;75395.75;5076134;28;20066;-93
2024/04/08 00:32:30;;;;;;;0.20;0.20;;;;;;;14.52;100.00;75383.78;5084572;28;20028;-92
2024/04/08 00:34:55;;;;;;;0.20;0.20;;;;;;;14.58;100.00;75390.34;5087565;28;20032;-92
2024/04/08 00:37:21;;;;;;;0.20;0.20;;;;;;;14.47;100.00;75377.78;5082035;28;20029;-92
2024/04/08 00:39:46;;;;;;;0.30;0.30;;;;;;;14.58;100.00;75388.19;5079274;28;20046;-93
2024/04/08 00:42:12;;;;;;;0.20;0.20;;;;;;;14.70;100.00;75407.53;5085893;28;20020;-92
2024/04/08 00:44:37;;;;;;;0.20;0.20;;;;;;;14.66;100.00;75397.75;5085709;28;20109;-93
2024/04/08 00:47:03;;;;;;;0.20;0.20;;;;;;;14.52;100.00;75383.78;5085974;28;20020;-92
2024/04/08 00:49:33;;;;;;;0.20;0.20;;;;;;;14.22;100.00;75345.03;5085390;28;20028;-93
2024/04/08 00:51:59;;;;;;;0.20;0.20;;;;;;;14.33;100.00;75355.44;5079247;28;20024;-94
2024/04/08 00:54:25;;;;;;;0.20;0.20;;;;;;;14.35;100.00;75368.94;5075938;28;20082;-93
2024/04/08 00:56:53;;;;;;;0.20;0.20;;;;;;;14.51;100.00;75379.19;5065589;28;20040;-94
2024/04/08 00:59:21;;;;;;;0.20;0.20;;;;;;;14.63;100.00;75390.78;5073996;28;20048;-93
2024/04/08 01:01:48;;;;;;;0.20;0.20;;;;;;;14.59;100.00;75389.38;5072568;28;20450;-92
2024/04/08 01:04:14;;;;;;;0.20;0.20;;;;;;;14.56;100.00;75388.56;5075776;28;20735;-94
2024/04/08 01:06:39;;;;;;;0.20;0.20;;;;;;;14.31;100.00;75355.81;5075242;28;20036;-93
2024/04/08 01:09:05;;;;;;;0.20;0.20;;;;;;;14.37;100.00;75363.00;5075618;28;20024;-92
2024/04/08 01:11:31;;;;;;;0.20;0.20;;;;;;;14.21;100.00;75350.00;5075495;28;20020;-92
2024/04/08 01:13:56;;;;;;;0.28;0.28;;;;;;;14.44;100.00;75376.97;5075409;28;20123;-92
2024/04/08 01:16:22;;;;;;;0.20;0.20;;;;;;;14.46;100.00;75376.56;5093036;28;20111;-93
2024/04/08 01:18:47;;;;;;;0.20;0.20;;;;;;;14.41;100.00;75365.00;5073741;28;20059;-92
2024/04/08 01:21:13;;;;;;;0.20;0.20;;;;;;;14.50;100.00;75384.16;5075798;28;20020;-92
2024/04/08 01:23:43;;;;;;;0.20;0.20;;;;;;;14.25;100.00;75351.41;5076440;28;20020;-92
2024/04/08 01:29:28;;;;;;;0.20;0.20;;;;;;;14.41;100.00;75371.16;5060152;28;20128;-92
2024/04/08 01:31:54;;;;;;;0.20;0.20;;;;;;;14.40;100.00;75374.94;5069178;28;20409;-90
2024/04/08 01:34:19;;;;;;;0.20;0.20;;;;;;;14.29;100.00;75356.22;5035040;28;20037;-92
2024/04/08 01:36:45;;;;;;;0.20;0.20;;;;;;;14.42;100.00;75371.75;5035246;28;20128;-91
2024/04/08 01:39:10;;;;;;;0.20;0.20;;;;;;;14.33;100.00;75361.00;5035823;28;20052;-90
2024/04/08 01:45:20;;;;;;;0.20;0.20;;;;;;;14.27;100.00;75359.97;5108610;22;20092;-89
2024/04/08 01:59:26;;;;;;;;;;;;;;;14.16;100.00;75341.22;5528583;22;20060;-91
2024/04/08 02:57:37;;;;;;;0.20;0.20;;;;;;;13.94;100.00;75315.47;5107614;22;20052;-91
2024/04/08 03:37:28;;;;;;;0.20;0.20;;;;;;;13.92;100.00;75312.50;5129525;23;20057;-88
2024/04/08 03:45:30;;;;;;;0.20;0.20;;;;;;;13.98;100.00;75319.66;5061819;23;20057;-90
2024/04/08 04:54:04;;;;;;;0.20;0.20;;;;;;;14.14;100.00;75336.66;5039378;23;20060;-91
2024/04/08 04:56:30;;;;;;;0.20;0.20;;;;;;;14.24;100.00;75348.03;5002110;28;20041;-88
2024/04/08 04:58:57;;;;;;;0.20;0.20;;;;;;;14.64;100.00;75394.75;5014878;28;20389;-91
2024/04/08 05:01:23;;;;;;;0.20;0.20;;;;;;;15.25;100.00;75468.84;5013818;28;20023;-92
2024/04/08 05:03:51;;;;;;;0.20;0.20;;;;;;;16.00;100.00;75554.19;5009550;28;20029;-92
2024/04/08 05:06:19;;;;;;;0.20;0.20;;;;;;;15.91;100.00;75546.78;5013747;28;20026;-92
2024/04/08 05:08:45;;;;;;;0.20;0.20;;;;;;;16.53;100.00;75619.97;5012669;28;20060;-92
2024/04/08 05:11:10;;;;;;;0.20;0.20;;;;;;;17.00;100.00;75669.59;5013139;28;20096;-92
2024/04/08 05:13:36;;;;;;;0.20;0.20;;;;;;;17.50;99.16;75731.16;5013602;28;20033;-93
2024/04/08 05:16:02;;;;;;;0.20;0.20;;;;;;;17.55;97.77;75737.78;5006315;28;20022;-90
2024/04/08 05:18:29;;;;;;;0.20;0.20;;;;;;;18.25;94.57;75817.22;5012015;28;20429;-92
2024/04/08 05:20:59;;;;;;;0.20;0.20;;;;;;;18.13;94.36;75802.84;5011981;28;20104;-91
2024/04/08 05:23:26;;;;;;;0.20;0.20;;;;;;;18.20;93.79;75811.22;5013161;28;20095;-91
2024/04/08 05:25:55;;;;;;;0.20;0.20;;;;;;;18.47;92.28;75845.25;5009621;28;20086;-92
2024/04/08 05:28:20;;;;;;;0.20;0.20;;;;;;;18.23;93.21;75814.84;5012507;28;20078;-92
2024/04/08 05:30:47;;;;;;;0.20;0.20;;;;;;;19.22;88.84;75931.38;5009069;28;20026;-90
2024/04/08 05:33:13;;;;;;;0.20;0.20;;;;;;;19.44;86.09;75962.81;4993353;28;20030;-90
2024/04/08 05:35:44;;;;;;;0.20;0.20;;;;;;;19.73;84.63;75994.28;4991609;28;20053;-92
2024/04/08 05:38:10;;;;;;;0.20;0.20;;;;;;;20.02;81.97;76025.13;5012861;28;20170;-92
2024/04/08 05:40:37;;;;;;;0.20;0.20;;;;;;;19.86;83.15;76006.50;5001980;28;20831;-92
2024/04/08 05:43:03;;;;;;;0.20;0.20;;;;;;;20.22;81.71;76048.56;5012098;28;20088;-91
2024/04/08 05:45:29;;;;;;;0.20;0.20;;;;;;;20.27;81.11;76055.19;5008867;28;20046;-92
2024/04/08 05:47:54;;;;;;;0.20;0.20;;;;;;;19.69;81.60;75986.06;4993659;28;20031;-91
2024/04/08 05:50:20;;;;;;;0.20;0.20;;;;;;;20.03;82.05;76031.97;4995297;28;20027;-91
2024/04/08 05:52:46;;;;;;;0.20;0.20;;;;;;;20.24;80.21;76056.59;4994068;28;20090;-90
2024/04/08 05:55:11;;;;;;;0.13;0.13;;;;;;;20.36;79.60;76066.00;5004592;28;20033;-91
2024/04/08 05:57:37;;;;;;;0.20;0.20;;;;;;;20.16;80.20;76041.97;5011803;28;20032;-91
2024/04/08 06:00:06;;;;;;;0.20;0.20;;;;;;;20.25;80.43;76058.41;4997029;28;20375;-88
2024/04/08 06:02:31;;;;;;;0.20;0.20;;;;;;;20.02;80.19;76025.13;5009706;28;20018;-89
2024/04/08 06:04:57;;;;;;;0.15;0.15;;;;;;;20.69;77.80;76110.13;5008532;28;20026;-91
2024/04/08 06:07:23;;;;;;;0.20;0.20;;;;;;;21.05;74.98;76147.22;4995643;28;20544;-91
2024/04/08 06:09:50;;;;;;;0.20;0.20;;;;;;;20.85;74.66;76123.75;4996679;28;20030;-88
2024/04/08 06:12:15;;;;;;;0.20;0.20;;;;;;;20.39;77.94;76069.59;4995754;28;20026;-91
2024/04/08 06:14:40;;;;;;;0.20;0.20;;;;;;;20.46;76.07;76074.66;4995826;28;20076;-90
2024/04/08 06:17:06;;;;;;;0.20;0.20;;;;;;;20.59;75.88;76092.47;5010037;28;20500;-90
2024/04/08 06:19:31;;;;;;;0.20;0.20;;;;;;;21.10;73.12;76152.63;5011734;28;20037;-90
2024/04/08 06:21:57;;;;;;;0.20;0.20;;;;;;;21.67;69.64;76217.78;5016382;28;20319;-92
2024/04/08 06:24:24;;;;;;;0.20;0.20;;;;;;;20.47;76.82;76078.66;5009281;28;20030;-91
2024/04/08 06:26:50;;;;;;;0.17;0.17;;;;;;;20.25;75.57;76052.78;4996867;28;20086;-90
2024/04/08 06:29:15;;;;;;;0.20;0.20;;;;;;;20.66;75.07;76103.69;4996725;28;20026;-91
2024/04/08 06:31:41;;;;;;;0.20;0.20;;;;;;;21.03;74.28;76144.78;4995413;28;20505;-91
2024/04/08 06:34:06;;;;;;;0.10;0.10;;;;;;;22.09;69.23;76269.94;4996683;28;20029;-90
2024/04/08 06:36:32;;;;;;;0.10;0.10;;;;;;;22.51;66.23;76319.34;5011512;28;20160;-91
2024/04/08 06:38:57;;;;;;;0.10;0.10;;;;;;;22.75;65.27;76344.81;5016280;28;20025;-90
2024/04/08 06:41:23;;;;;;;0.20;0.20;;;;;;;22.88;63.13;76363.31;5014707;28;20520;-90
2024/04/08 06:43:48;;;;;;;0.10;0.10;;;;;;;23.63;59.12;76449.03;4997091;28;20034;-90
2024/04/08 06:46:13;;;;;;;0.10;0.10;;;;;;;23.34;60.46;76411.84;5003099;28;20032;-91
2024/04/08 06:48:39;;;;;;;0.10;0.10;;;;;;;23.65;59.21;76450.81;4995114;28;20026;-90
2024/04/08 06:51:05;;;;;;;0.10;0.10;;;;;;;23.39;58.07;76417.88;4995096;28;20040;-90
2024/04/08 06:53:30;;;;;;;0.10;0.10;;;;;;;24.28;55.37;76528.34;4995929;28;20124;-90
2024/04/08 06:55:55;;;;;;;0.10;0.10;;;;;;;22.82;61.45;76355.47;4996418;28;20508;-90
2024/04/08 06:58:22;;;;;;;0.10;0.10;;;;;;;23.74;57.88;76459.44;4996576;28;20037;-91
2024/04/08 07:00:48;;;;;;;0.10;0.10;;;;;;;23.65;57.69;76448.00;5010614;28;20116;-91
2024/04/08 07:03:14;;;;;;;0.20;0.20;;;;;;;23.18;58.50;76398.22;5006371;28;20023;-89
2024/04/08 07:05:41;;;;;;;0.20;0.20;;;;;;;22.83;61.68;76356.66;4996925;28;20130;-90
2024/04/08 07:08:07;;;;;;;0.10;0.10;;;;;;;23.68;57.37;76457.28;4996819;28;20037;-91
2024/04/08 07:10:35;;;;;;;0.10;0.10;;;;;;;23.92;56.82;76486.19;5013406;28;20061;-89
2024/04/08 07:13:00;;;;;;;0.10;0.10;;;;;;;24.90;52.94;76596.25;5011616;28;20029;-90
2024/04/08 07:15:25;;;;;;;0.10;0.10;;;;;;;23.85;56.40;76474.91;5008718;28;20034;-90
2024/04/08 07:17:51;;;;;;;0.20;0.20;;;;;;;23.72;57.85;76462.09;5007827;28;20091;-91
2024/04/08 07:20:16;;;;;;;0.10;0.10;;;;;;;23.61;58.50;76449.41;5013928;28;20374;-90
2024/04/08 07:22:41;;;;;;;0.10;0.10;;;;;;;23.03;60.66;76374.53;5000855;28;20031;-91
2024/04/08 07:25:07;;;;;;;0.20;0.20;;;;;;;22.92;61.20;76365.31;5004760;28;20038;-90
2024/04/08 07:27:35;;;;;;;0.10;0.10;;;;;;;23.44;59.79;76426.72;4994301;28;20030;-90
2024/04/08 07:30:01;;;;;;;0.17;0.17;;;;;;;23.31;60.29;76413.88;4998659;28;20025;-90
2024/04/08 07:32:28;;;;;;;0.20;0.20;;;;;;;22.89;63.08;76361.69;5009186;28;20206;-91
2024/04/08 07:34:54;;;;;;;0.20;0.20;;;;;;;23.26;62.01;76402.81;5003059;28;20113;-91
2024/04/08 07:37:19;;;;;;;0.10;0.10;;;;;;;23.82;60.20;76471.31;4995238;28;20443;-90
2024/04/08 07:39:45;;;;;;;0.20;0.20;;;;;;;24.72;55.37;76571.72;4994155;28;20018;-89
2024/04/08 07:42:10;;;;;;;0.20;0.20;;;;;;;24.81;54.23;76591.66;4995067;28;20022;-89
2024/04/08 07:44:35;;;;;;;0.10;0.10;;;;;;;24.65;55.08;76568.94;5013746;28;20017;-89
2024/04/08 07:47:01;;;;;;;0.20;0.20;;;;;;;23.58;57.48;76445.19;4998406;28;20501;-88
2024/04/08 07:49:26;;;;;;;0.20;0.20;;;;;;;23.52;57.42;76435.75;4994845;28;20065;-90
2024/04/08 07:51:52;;;;;;;0.10;0.10;;;;;;;23.36;59.72;76419.91;5007978;28;20478;-90
2024/04/08 07:54:17;;;;;;;0.20;0.20;;;;;;;24.48;56.19;76546.22;5013134;28;20046;-90
2024/04/08 07:56:43;;;;;;;0.10;0.10;;;;;;;24.78;54.85;76588.06;5014138;28;20493;-89
2024/04/08 07:59:08;;;;;;;0.13;0.13;;;;;;;23.81;57.22;76472.94;5010498;28;20033;-89
2024/04/08 08:01:34;;;;;;;0.20;0.20;;;;;;;24.78;53.85;76582.38;4994928;28;20018;-89
2024/04/08 08:03:59;;;;;;;0.15;0.15;;;;;;;24.13;55.07;76507.44;5002872;28;20049;-90
2024/04/08 08:06:28;;;;;;;0.10;0.10;;;;;;;23.23;59.55;76399.22;5000063;28;20103;-90
2024/04/08 08:08:54;;;;;;;0.20;0.20;;;;;;;24.26;57.06;76526.56;4996486;28;20117;-91
2024/04/08 08:11:19;;;;;;;0.20;0.20;;;;;;;24.57;55.18;76559.91;5013895;28;20053;-89
2024/04/08 08:13:44;;;;;;;0.10;0.10;;;;;;;24.16;57.16;76508.84;5009111;28;20414;-88
2024/04/08 08:16:10;;;;;;;0.17;0.17;;;;;;;24.82;54.61;76590.06;5000289;28;20022;-88
2024/04/08 08:18:35;;;;;;;0.10;0.10;;;;;;;24.70;53.84;76578.41;5013042;28;20048;-89
2024/04/08 08:21:02;;;;;;;0.10;0.10;;;;;;;24.84;54.96;76591.84;5002598;28;20038;-90
2024/04/08 08:23:28;;;;;;;0.10;0.10;;;;;;;25.59;51.99;76678.25;5012306;28;20088;-90
2024/04/08 08:25:56;;;;;;;0.20;0.20;;;;;;;25.14;51.36;76624.63;5002304;28;20029;-90
2024/04/08 08:28:22;;;;;;;0.20;0.20;;;;;;;24.66;54.30;76570.75;5012445;28;20485;-89
2024/04/08 08:30:47;;;;;;;0.10;0.10;;;;;;;24.82;53.32;76586.59;5003357;28;20030;-89
2024/04/08 08:33:13;;;;;;;0.10;0.10;;;;;;;24.34;54.13;76527.09;5004840;28;20034;-90
2024/04/08 08:35:39;;;;;;;0.20;0.20;;;;;;;25.04;52.66;76618.19;5013134;28;20026;-90
2024/04/08 08:38:06;;;;;;;0.10;0.10;;;;;;;24.95;52.41;76607.94;4995848;28;20428;-90
2024/04/08 08:40:32;;;;;;;0.15;0.15;;;;;;;24.48;53.41;76551.88;5003376;28;20034;-90
2024/04/08 08:42:57;;;;;;;0.20;0.20;;;;;;;25.01;51.99;76611.75;5011383;28;20025;-91
2024/04/08 08:45:24;;;;;;;0.20;0.20;;;;;;;25.77;49.23;76698.78;4997178;28;20026;-89
2024/04/08 08:47:49;;;;;;;0.10;0.10;;;;;;;25.16;51.16;76629.84;5004855;28;20459;-89
2024/04/08 08:50:18;;;;;;;0.10;0.10;;;;;;;25.56;49.47;76679.69;4995941;28;20130;-89
2024/04/08 08:52:46;;;;;;;0.10;0.10;;;;;;;26.14;48.42;76745.63;5005496;28;20050;-90
2024/04/08 08:55:19;;;;;;;0.10;0.10;;;;;;;25.49;49.42;76663.38;4994456;28;20502;-90
2024/04/08 08:57:44;;;;;;;0.10;0.10;;;;;;;25.24;50.18;76638.88;5003943;28;20040;-89
2024/04/08 09:00:14;;;;;;;0.10;0.10;;;;;;;25.61;48.42;76677.22;5008236;28;20473;-88
2024/04/08 09:02:40;;;;;;;0.10;0.10;;;;;;;25.77;47.17;76705.03;5005123;28;20041;-88
2024/04/08 09:05:05;;;;;;;0.10;0.10;;;;;;;25.94;47.31;76724.97;5011549;28;20482;-88
2024/04/08 09:07:31;;;;;;;0.20;0.20;;;;;;;25.63;47.04;76684.72;5012527;28;20083;-91
2024/04/08 09:09:58;;;;;;;0.10;0.10;;;;;;;26.11;46.70;76739.19;4998160;28;20470;-91
2024/04/08 09:12:24;;;;;;;0.10;0.10;;;;;;;25.92;46.24;76714.03;4993055;28;20026;-91
2024/04/08 09:14:51;;;;;;;0.10;0.10;;;;;;;26.58;45.64;76795.31;5004006;28;20033;-90
2024/04/08 09:17:18;;;;;;;0.10;0.10;;;;;;;26.81;43.34;76824.69;4992853;28;20034;-90
2024/04/08 09:19:44;;;;;;;0.10;0.10;;;;;;;27.42;42.37;76897.13;5011121;28;20117;-91
2024/04/08 09:22:10;;;;;;;0.10;0.10;;;;;;;26.79;43.75;76820.06;5011784;28;20076;-90
2024/04/08 09:24:35;;;;;;;0.20;0.20;;;;;;;25.84;45.72;76707.22;5012008;28;20101;-91
2024/04/08 09:27:01;;;;;;;0.10;0.10;;;;;;;25.69;45.11;76694.78;5010720;28;20042;-90
2024/04/08 09:29:27;;;;;;;0.13;0.13;;;;;;;25.64;44.61;76680.25;5010730;28;21243;-90
2024/04/08 09:31:53;;;;;;;0.20;0.20;;;;;;;24.97;47.58;76601.84;5011469;28;20045;-89
2024/04/08 09:34:18;;;;;;;0.10;0.10;;;;;;;25.85;45.62;76708.44;5004671;28;20873;-90
2024/04/08 09:36:44;;;;;;;0.15;0.15;;;;;;;25.94;45.15;76718.66;5001304;28;20033;-90
2024/04/08 09:39:12;;;;;;;0.10;0.10;;;;;;;25.80;45.64;76702.41;5004678;28;20022;-91
2024/04/08 09:41:40;;;;;;;0.10;0.10;;;;;;;26.38;44.66;76771.16;5007170;28;20090;-91
2024/04/08 09:44:12;;;;;;;0.10;0.10;;;;;;;26.42;44.55;76781.69;5002458;28;20505;-91
2024/04/08 09:46:39;;;;;;;0.10;0.10;;;;;;;26.86;43.53;76828.50;4994482;28;20030;-91
2024/04/08 09:49:04;;;;;;;0.10;0.10;;;;;;;26.42;43.06;76773.19;4998302;28;20030;-91
2024/04/08 09:51:30;;;;;;;0.10;0.10;;;;;;;26.52;43.16;76790.91;4997992;28;20026;-92
2024/04/08 09:53:56;;;;;;;0.20;0.20;;;;;;;27.36;41.54;76889.88;5000343;28;20145;-91
2024/04/08 09:56:22;;;;;;;0.10;0.10;;;;;;;28.26;40.51;76993.31;5017967;28;20168;-91
2024/04/08 09:59:05;;;;;;;0.10;0.10;;;;;;;27.45;41.08;76894.47;5020145;28;20036;-91
2024/04/08 10:01:30;;;;;;;0.10;0.10;;;;;;;26.83;42.17;76824.25;5022041;28;20018;-91
2024/04/08 10:03:59;;;;;;;0.10;0.10;;;;;;;27.39;41.18;76887.84;5016282;28;20121;-91
2024/04/08 10:06:26;;;;;;;0.20;0.20;;;;;;;27.21;42.06;76863.25;5017337;28;20096;-92
2024/04/08 10:08:52;;;;;;;0.10;0.10;;;;;;;27.85;40.68;76942.78;5016911;28;20045;-90
2024/04/08 10:11:18;;;;;;;0.10;0.10;;;;;;;27.87;40.54;76944.59;5017654;28;20095;-91
2024/04/08 10:13:47;;;;;;;0.10;0.10;;;;;;;27.73;41.61;76927.69;5017704;28;20045;-91
2024/04/08 10:16:14;;;;;;;0.10;0.10;;;;;;;27.27;42.24;76870.50;5016212;28;20052;-90
2024/04/08 10:19:05;;;;;;;0.20;0.20;;;;;;;27.26;42.87;76881.25;5017518;28;20037;-91
2024/04/08 10:21:31;;;;;;;0.10;0.10;;;;;;;27.37;42.13;76894.53;5012561;28;20040;-90
2024/04/08 10:23:58;;;;;;;0.20;0.20;;;;;;;27.17;42.74;76864.13;5016760;28;20497;-91
2024/04/08 10:26:26;;;;;;;0.20;0.20;;;;;;;27.37;42.76;76891.69;5015438;28;20084;-90
2024/04/08 10:28:53;;;;;;;0.10;0.10;;;;;;;27.62;41.69;76915.00;5016870;28;20061;-91
2024/04/08 10:31:20;;;;;;;0.20;0.20;;;;;;;28.34;38.87;77003.00;5016589;28;20030;-91
2024/04/08 10:33:45;;;;;;;0.10;0.10;;;;;;;28.04;39.30;76970.81;5016721;28;20029;-91
2024/04/08 10:36:11;;;;;;;0.10;0.10;;;;;;;26.71;41.98;76809.78;5015412;28;20393;-91
2024/04/08 10:38:39;;;;;;;0.20;0.20;;;;;;;27.38;40.76;76889.47;5015896;28;20460;-91
2024/04/08 10:41:08;;;;;;;0.10;0.10;;;;;;;27.28;41.64;76880.84;5015496;28;20056;-90
2024/04/08 10:43:34;;;;;;;0.10;0.10;;;;;;;27.76;41.06;76934.16;5015410;28;20026;-91
2024/04/08 10:46:04;;;;;;;0.10;0.10;;;;;;;27.73;40.80;76928.28;5015817;28;20057;-90
2024/04/08 10:48:31;;;;;;;0.10;0.10;;;;;;;27.79;41.66;76940.63;5017462;28;20120;-91
2024/04/08 10:50:57;;;;;;;0.20;0.20;;;;;;;27.73;42.22;76930.53;5015613;28;20057;-91
2024/04/08 10:53:26;;;;;;;0.10;0.10;;;;;;;27.67;42.41;76924.47;5016977;28;20073;-91
2024/04/08 10:55:55;;;;;;;0.10;0.10;;;;;;;27.76;42.20;76931.31;5015743;28;20493;-92
2024/04/08 10:58:20;;;;;;;0.10;0.10;;;;;;;28.38;42.32;77007.81;5015528;28;20068;-91
2024/04/08 11:00:46;;;;;;;0.10;0.10;;;;;;;27.77;42.96;76929.69;5015908;28;20112;-91
2024/04/08 11:03:14;;;;;;;0.10;0.10;;;;;;;28.03;41.60;76966.75;5016134;28;20026;-91
2024/04/08 11:05:40;;;;;;;0.10;0.10;;;;;;;27.58;39.48;76907.91;5015988;28;20091;-92
2024/04/08 11:08:08;;;;;;;0.10;0.10;;;;;;;27.77;39.49;76935.38;5016932;28;20022;-91
2024/04/08 11:10:35;;;;;;;0.10;0.10;;;;;;;28.29;40.05;76997.56;5016865;28;20080;-90
2024/04/08 11:13:00;;;;;;;0.10;0.10;;;;;;;28.03;41.53;76966.75;5016309;28;20453;-92
2024/04/08 11:15:28;;;;;;;0.10;0.10;;;;;;;27.41;41.54;76895.91;5016716;28;20109;-91
2024/04/08 11:17:57;;;;;;;0.15;0.15;;;;;;;27.11;40.74;76858.09;5016341;28;20501;-92
2024/04/08 11:20:25;;;;;;;0.13;0.13;;;;;;;27.34;40.96;76879.56;5015482;28;20636;-91
2024/04/08 11:22:50;;;;;;;0.17;0.17;;;;;;;27.30;40.79;76885.50;5011120;28;20433;-92
2024/04/08 11:25:16;;;;;;;0.10;0.10;;;;;;;27.18;42.31;76871.00;5000345;28;20031;-92
2024/04/08 11:27:43;;;;;;;0.17;0.17;;;;;;;27.08;43.43;76854.47;4995454;28;20125;-91
2024/04/08 11:30:17;;;;;;;0.10;0.10;;;;;;;27.28;42.44;76875.16;4996881;28;20562;-92
2024/04/08 11:32:43;;;;;;;0.13;0.13;;;;;;;28.14;40.64;76974.34;4995454;28;20048;-91
2024/04/08 11:35:10;;;;;;;0.10;0.10;;;;;;;27.95;41.15;76951.41;4994217;28;20434;-91
2024/04/08 11:37:36;;;;;;;0.13;0.13;;;;;;;27.44;43.93;76896.72;5002249;28;20038;-91
2024/04/08 11:40:05;;;;;;;0.10;0.10;;;;;;;27.46;43.74;76895.69;5008830;28;20092;-91
2024/04/08 11:42:31;;;;;;;0.10;0.10;;;;;;;28.10;42.86;76971.75;5011066;28;20453;-91
2024/04/08 11:44:59;;;;;;;0.10;0.10;;;;;;;27.45;45.76;76900.16;4995754;28;20041;-92
2024/04/08 11:47:24;;;;;;;0.10;0.10;;;;;;;27.33;45.95;76884.03;5007479;28;20477;-91
2024/04/08 11:49:50;;;;;;;0.10;0.10;;;;;;;27.62;45.99;76924.13;5007241;28;20034;-91
2024/04/08 11:52:15;;;;;;;0.10;0.10;;;;;;;27.06;45.35;76857.09;5005958;28;20018;-91
2024/04/08 11:54:41;;;;;;;0.10;0.10;;;;;;;27.22;44.03;76873.59;5008851;28;20046;-91
2024/04/08 11:57:10;;;;;;;0.13;0.13;;;;;;;26.99;44.81;76849.25;5000676;28;20030;-91
2024/04/08 11:59:36;;;;;;;0.10;0.10;;;;;;;27.20;44.40;76867.72;4995362;28;20037;-92
2024/04/08 12:02:03;;;;;;;0.10;0.10;;;;;;;26.92;43.79;76835.13;4995955;28;20022;-91
2024/04/08 12:04:29;;;;;;;0.10;0.10;;;;;;;26.83;45.41;76824.25;4993722;28;20054;-91
2024/04/08 12:06:55;;;;;;;0.20;0.20;;;;;;;27.30;43.14;76879.81;4993667;28;20125;-91
2024/04/08 12:09:21;;;;;;;0.10;0.10;;;;;;;27.49;41.97;76902.75;4993759;28;20019;-91
2024/04/08 12:11:47;;;;;;;0.10;0.10;;;;;;;27.75;40.23;76930.72;4994291;28;20497;-89
2024/04/08 12:14:15;;;;;;;0.10;0.10;;;;;;;27.56;42.47;76908.34;4991609;28;20022;-88
2024/04/08 12:16:43;;;;;;;0.10;0.10;;;;;;;26.93;44.09;76835.72;4993783;28;20086;-90
2024/04/08 12:19:11;;;;;;;0.10;0.10;;;;;;;27.05;44.66;76850.81;4996653;28;20506;-91
2024/04/08 12:21:39;;;;;;;0.15;0.15;;;;;;;27.34;44.32;76881.81;4994824;28;20026;-91
2024/04/08 12:24:05;;;;;;;0.10;0.10;;;;;;;27.05;44.81;76850.81;4993413;28;20451;-91
2024/04/08 12:26:30;;;;;;;0.10;0.10;;;;;;;26.28;47.78;76759.09;5010677;28;20113;-90
2024/04/08 12:28:56;;;;;;;0.17;0.17;;;;;;;26.39;47.13;76778.03;5011189;28;20026;-92
2024/04/08 12:31:22;;;;;;;0.10;0.10;;;;;;;26.37;45.98;76767.13;5012527;28;20033;-91
2024/04/08 12:33:47;;;;;;;0.10;0.10;;;;;;;26.45;49.33;76776.78;5013728;28;20030;-90
2024/04/08 12:36:13;;;;;;;0.10;0.10;;;;;;;26.34;49.43;76763.50;5002103;28;20572;-91
2024/04/08 12:38:39;;;;;;;0.10;0.10;;;;;;;27.00;47.05;76847.63;5005266;28;20088;-91
2024/04/08 12:41:04;;;;;;;0.10;0.10;;;;;;;27.44;46.53;76896.13;5014354;28;20401;-92
2024/04/08 12:43:30;;;;;;;0.10;0.10;;;;;;;27.02;40.57;76850.03;5013098;28;20041;-90
2024/04/08 12:45:56;;;;;;;0.10;0.10;;;;;;;27.20;35.35;76865.50;5010920;28;20033;-91
2024/04/08 12:48:21;;;;;;;0.10;0.10;;;;;;;27.56;34.18;76910.59;5005866;28;20029;-90
2024/04/08 12:50:47;;;;;;;0.10;0.10;;;;;;;27.11;31.54;76854.63;5010706;28;20056;-90
2024/04/08 12:53:14;;;;;;;0.13;0.13;;;;;;;27.48;31.81;76901.53;5010265;28;20097;-89
2024/04/08 12:55:40;;;;;;;0.10;0.10;;;;;;;27.64;31.23;76920.22;5001710;28;20428;-90
2024/04/08 12:58:08;;;;;;;0.10;0.10;;;;;;;27.44;31.40;76896.72;5002929;28;20366;-88
2024/04/08 13:00:34;;;;;;;0.10;0.10;;;;;;;26.68;32.74;76812.44;4995085;28;20037;-92
2024/04/08 13:02:59;;;;;;;0.10;0.10;;;;;;;27.17;31.17;76861.88;4994392;28;20022;-90
2024/04/08 13:05:25;;;;;;;0.10;0.10;;;;;;;27.65;29.74;76921.47;4993187;28;20029;-90
2024/04/08 13:07:50;;;;;;;0.10;0.10;;;;;;;27.10;30.40;76853.44;4993137;28;20026;-90
2024/04/08 13:10:17;;;;;;;0.10;0.10;;;;;;;27.27;29.79;76876.19;4993197;28;20018;-92
2024/04/08 13:12:42;;;;;;;0.10;0.10;;;;;;;27.35;31.70;76885.84;4992850;28;20056;-91
2024/04/08 13:15:08;;;;;;;0.10;0.10;;;;;;;27.28;32.56;76878.00;4993803;28;20477;-90
2024/04/08 13:17:33;;;;;;;0.10;0.10;;;;;;;27.80;30.58;76938.97;5012331;28;20117;-91
2024/04/08 13:19:59;;;;;;;0.10;0.10;;;;;;;27.28;35.65;76883.69;5013652;28;20113;-91
2024/04/08 13:22:24;;;;;;;0.10;0.10;;;;;;;27.47;37.07;76902.56;5012506;28;20053;-92
2024/04/08 13:24:49;;;;;;;0.10;0.10;;;;;;;27.03;39.71;76848.41;5009349;28;20033;-91
2024/04/08 13:27:15;;;;;;;0.10;0.10;;;;;;;27.04;41.34;76851.84;5012773;28;20052;-91
2024/04/08 13:31:21;;;;;;;0.10;0.10;;;;;;;26.47;44.90;76787.09;5399981;26;20919;-92
2024/04/08 13:33:46;;;;;;;0.13;0.13;;;;;;;26.32;44.83;76761.09;5400983;26;19992;-92
2024/04/08 13:36:12;;;;;;;0.10;0.10;;;;;;;26.48;45.49;76780.41;5399898;26;20031;-92
2024/04/08 13:38:39;;;;;;;0.10;0.10;;;;;;;26.01;46.88;76730.56;5400530;26;20020;-93
2024/04/08 13:41:05;;;;;;;0.10;0.10;;;;;;;26.06;46.49;76736.59;5398454;26;19996;-93
2024/04/08 13:43:31;;;;;;;0.10;0.10;;;;;;;25.83;47.10;76712.31;5400798;26;20007;-92
2024/04/08 13:45:59;;;;;;;0.20;0.20;;;;;;;25.59;47.23;76677.66;5398597;26;20330;-92
2024/04/08 13:48:24;;;;;;;0.10;0.10;;;;;;;25.51;46.41;76665.78;5400664;26;20443;-92
2024/04/08 13:50:50;;;;;;;0.10;0.10;;;;;;;25.67;45.42;76690.13;5398725;26;19992;-91
2024/04/08 13:53:15;;;;;;;0.20;0.20;;;;;;;25.90;43.03;76714.47;5399136;26;20003;-92
2024/04/08 13:55:54;;;;;;;0.10;0.10;;;;;;;25.88;42.71;76712.03;5398533;26;20000;-92
2024/04/08 13:58:20;;;;;;;0.10;0.10;;;;;;;25.95;43.94;76723.34;5399594;26;20019;-92
2024/04/08 14:00:46;;;;;;;0.10;0.10;;;;;;;25.84;44.28;76710.66;5365249;26;20005;-91
2024/04/08 14:03:11;;;;;;;0.10;0.10;;;;;;;25.84;43.39;76710.06;5362824;26;20007;-94
2024/04/08 14:05:36;;;;;;;0.10;0.10;;;;;;;25.33;45.89;76646.91;5364277;26;19997;-93
2024/04/08 14:08:02;;;;;;;0.20;0.20;;;;;;;25.68;46.48;76690.75;5364840;26;20008;-94
2024/04/08 14:10:27;;;;;;;0.10;0.10;;;;;;;26.24;45.13;76754.88;5363841;26;20000;-94
2024/04/08 14:12:53;;;;;;;0.20;0.20;;;;;;;25.20;48.34;76628.41;5363983;26;20001;-93
2024/04/08 14:15:19;;;;;;;0.10;0.10;;;;;;;25.60;48.47;76685.13;5362029;26;20012;-92
2024/04/08 14:17:44;;;;;;;0.10;0.10;;;;;;;25.61;49.04;76685.72;5363811;26;20011;-91
2024/04/08 14:20:10;;;;;;;0.10;0.10;;;;;;;25.44;50.04;76663.00;5362642;26;19997;-92
2024/04/08 14:22:35;;;;;;;0.10;0.10;;;;;;;26.02;48.31;76728.94;5363971;26;20069;-92
2024/04/08 14:25:01;;;;;;;0.10;0.10;;;;;;;25.85;46.50;76705.59;5363649;26;20074;-91
2024/04/08 14:27:26;;;;;;;0.10;0.10;;;;;;;25.51;45.21;76668.59;5364029;26;20008;-89
2024/04/08 14:29:52;;;;;;;0.10;0.10;;;;;;;25.74;41.25;76697.97;5384223;26;20324;-91
2024/04/08 14:32:17;;;;;;;0.10;0.10;;;;;;;26.27;42.14;76761.31;5398213;26;19992;-91